Time;durP1;ratioP1;P1;durP2;ratioP2;P2;SDS_P1;SDS_P2;PMS_P1;PMS_P2;Temp;Humidity;BMP_temperature;BMP_pressure;BME280_temperature;BME280_humidity;BME280_pressure;Samples;Min_cycle;Max_cycle;Signal;HPM_P1;HPM_P2
2022/04/02 00:01:03;;;;;;;5.90;2.63;;;;;;;5.61;48.40;101422.09;5104002;28;21241;-59
2022/04/02 00:03:30;;;;;;;4.32;2.00;;;;;;;5.60;48.92;101423.94;5107412;28;20055;-58
2022/04/02 00:06:00;;;;;;;4.35;1.85;;;;;;;5.61;48.78;101433.59;5121566;28;20134;-57
2022/04/02 00:08:27;;;;;;;3.50;2.30;;;;;;;5.57;49.04;101433.09;5119734;28;20126;-58
2022/04/02 00:10:55;;;;;;;4.40;2.38;;;;;;;5.55;48.63;101439.63;5122826;28;20552;-58
2022/04/02 00:13:23;;;;;;;4.78;2.20;;;;;;;5.62;48.47;101437.09;5114558;28;20078;-58
2022/04/02 00:15:51;;;;;;;3.92;1.92;;;;;;;5.62;48.89;101434.41;5127772;28;20050;-58
2022/04/02 00:18:20;;;;;;;7.97;2.70;;;;;;;5.54;49.37;101441.44;5113049;28;20079;-58
2022/04/02 00:20:47;;;;;;;3.83;2.13;;;;;;;5.54;48.51;101438.78;5113389;28;20044;-58
2022/04/02 00:26:02;;;;;;;4.70;1.75;;;;;;;5.49;48.92;101433.16;5111183;28;20119;-58
2022/04/02 00:28:36;;;;;;;3.67;2.20;;;;;;;5.45;48.96;101441.66;5112256;28;20052;-59
2022/04/02 00:31:04;;;;;;;6.18;2.60;;;;;;;5.46;48.73;101430.81;5118560;28;20047;-59
2022/04/02 00:33:32;;;;;;;4.05;2.38;;;;;;;5.42;49.10;101426.84;5120416;28;20081;-59
2022/04/02 00:36:00;;;;;;;6.63;2.15;;;;;;;5.39;48.96;101429.88;5123666;28;20043;-58
2022/04/02 00:38:29;;;;;;;6.55;2.53;;;;;;;5.43;49.12;101431.19;5102704;28;20044;-58
2022/04/02 00:40:57;;;;;;;4.40;2.80;;;;;;;5.50;48.90;101431.31;5106030;28;20093;-59
2022/04/02 00:43:26;;;;;;;3.90;2.35;;;;;;;5.53;48.75;101436.28;5104315;28;20063;-59
2022/04/02 00:45:56;;;;;;;4.30;2.72;;;;;;;5.55;48.68;101429.78;5111781;28;20641;-59
2022/04/02 00:48:26;;;;;;;5.65;2.50;;;;;;;5.60;48.55;101431.94;5118852;28;20044;-59
2022/04/02 00:50:56;;;;;;;3.42;2.13;;;;;;;5.61;48.61;101433.59;5119778;28;20048;-59
2022/04/02 00:53:25;;;;;;;3.90;2.28;;;;;;;5.61;48.58;101438.09;5118556;28;20043;-59
2022/04/02 00:55:54;;;;;;;5.55;2.30;;;;;;;5.56;48.85;101433.28;5120226;28;20051;-59
2022/04/02 00:58:22;;;;;;;6.53;2.40;;;;;;;5.52;49.22;101431.97;5108670;28;20063;-59
2022/04/02 01:00:49;;;;;;;5.45;2.75;;;;;;;5.55;48.63;101429.78;5105311;28;20730;-59
2022/04/02 01:03:18;;;;;;;4.00;2.33;;;;;;;5.56;49.05;101425.28;5113362;28;20058;-60
2022/04/02 01:05:47;;;;;;;6.45;2.05;;;;;;;5.58;48.37;101433.94;5109845;28;20106;-59
2022/04/02 01:08:14;;;;;;;4.53;2.22;;;;;;;5.63;48.41;101428.91;5109767;28;20471;-59
2022/04/02 01:10:42;;;;;;;3.65;2.50;;;;;;;5.62;48.55;101427.25;5108728;28;20086;-59
2022/04/02 01:13:13;;;;;;;8.25;2.40;;;;;;;5.65;48.56;101423.41;5116722;28;20079;-59
2022/04/02 01:15:42;;;;;;;6.85;2.10;;;;;;;5.66;48.30;101419.72;5118366;28;20052;-59
2022/04/02 01:18:09;;;;;;;3.90;2.15;;;;;;;5.64;48.71;101427.06;5122089;28;20071;-59
2022/04/02 01:20:37;;;;;;;3.28;2.08;;;;;;;5.65;48.22;101431.41;5124752;28;20098;-59
2022/04/02 01:23:08;;;;;;;4.97;2.00;;;;;;;5.63;48.56;101428.91;5116120;28;20048;-59
2022/04/02 01:25:36;;;;;;;5.18;2.72;;;;;;;5.62;49.03;101427.25;5112439;28;20394;-59
2022/04/02 01:28:04;;;;;;;3.72;1.75;;;;;;;5.52;48.57;101415.97;5116637;28;20362;-59
2022/04/02 01:30:32;;;;;;;4.90;1.70;;;;;;;5.65;48.84;101437.56;5109989;28;20051;-59
2022/04/02 01:33:00;;;;;;;4.28;2.60;;;;;;;5.53;49.08;101430.97;5110935;28;20087;-58
2022/04/02 01:35:28;;;;;;;3.15;2.08;;;;;;;5.54;49.03;101432.63;5119419;28;20063;-58
2022/04/02 01:37:56;;;;;;;5.82;2.20;;;;;;;5.47;49.04;101423.66;5118516;28;20067;-59
2022/04/02 01:40:25;;;;;;;6.05;2.35;;;;;;;5.50;49.12;101434.81;5113747;27;20078;-58
2022/04/02 01:42:53;;;;;;;2.88;2.10;;;;;;;5.42;49.39;101428.69;5104632;28;20075;-59
2022/04/02 01:45:21;;;;;;;4.30;2.40;;;;;;;5.44;48.59;101432.00;5117559;28;20477;-59
2022/04/02 01:47:51;;;;;;;3.35;2.10;;;;;;;5.43;49.16;101428.50;5113469;28;20071;-59
2022/04/02 01:50:18;;;;;;;3.85;2.28;;;;;;;5.44;49.04;101432.00;5122932;27;20064;-59
2022/04/02 01:52:46;;;;;;;4.60;2.40;;;;;;;5.41;48.62;101433.19;5109506;28;20896;-59
2022/04/02 01:55:14;;;;;;;5.45;2.42;;;;;;;5.36;48.66;101426.72;5119052;28;20048;-58
2022/04/02 01:57:43;;;;;;;5.53;2.35;;;;;;;5.40;49.12;101428.03;5118215;28;20040;-58
2022/04/02 02:00:12;;;;;;;4.10;2.50;;;;;;;5.42;48.47;101432.19;5112954;28;20109;-58
2022/04/02 02:02:40;;;;;;;7.50;2.03;;;;;;;5.45;48.77;101436.34;5106987;28;20077;-58
2022/04/02 02:05:08;;;;;;;4.13;2.10;;;;;;;5.47;48.45;101437.81;5111602;28;20048;-58
2022/04/02 02:07:36;;;;;;;6.18;2.50;;;;;;;5.41;48.98;101437.69;5124710;28;20082;-58
2022/04/02 02:10:05;;;;;;;5.22;2.85;;;;;;;5.39;49.28;101445.03;5123520;28;20468;-57
2022/04/02 02:12:33;;;;;;;7.70;2.63;;;;;;;5.36;48.63;101437.38;5114647;27;20139;-58
2022/04/02 02:15:02;;;;;;;5.57;2.13;;;;;;;5.36;48.92;101440.88;5111458;28;20482;-58
2022/04/02 02:17:30;;;;;;;4.15;2.33;;;;;;;5.30;48.43;101432.72;5109660;28;20047;-58
2022/04/02 02:19:57;;;;;;;4.85;2.47;;;;;;;5.36;49.03;101440.88;5120018;28;20059;-58
2022/04/02 02:22:25;;;;;;;4.82;2.30;;;;;;;5.30;48.69;101446.88;5117853;28;20107;-58
2022/04/02 02:24:53;;;;;;;5.95;2.47;;;;;;;5.30;48.53;101452.22;5117825;28;20350;-58
2022/04/02 02:27:20;;;;;;;4.03;2.40;;;;;;;5.30;48.51;101449.56;5123111;28;20079;-58
2022/04/02 02:29:48;;;;;;;3.88;2.42;;;;;;;5.29;48.96;101447.06;5120259;28;20182;-58
2022/04/02 02:32:17;;;;;;;4.40;2.33;;;;;;;5.24;49.07;101451.06;5119892;28;20050;-58
2022/04/02 02:37:31;;;;;;;5.05;2.35;;;;;;;5.27;48.20;101452.56;5118073;28;20086;-57
2022/04/02 02:39:58;;;;;;;5.25;1.98;;;;;;;5.26;48.46;101453.56;5112498;28;20052;-57
2022/04/02 02:42:27;;;;;;;5.80;2.40;;;;;;;5.24;48.57;101458.25;5114459;28;20050;-58
2022/04/02 02:44:55;;;;;;;4.35;2.25;;;;;;;5.23;48.52;101456.56;5112320;28;20044;-58
2022/04/02 02:47:24;;;;;;;5.30;2.05;;;;;;;5.20;48.84;101457.75;5119756;28;20072;-58
2022/04/02 02:49:53;;;;;;;3.13;1.90;;;;;;;5.22;48.04;101458.41;5120901;28;20071;-58
2022/04/02 02:52:21;;;;;;;5.10;2.40;;;;;;;5.30;48.30;101462.88;5121323;28;20134;-58
2022/04/02 02:54:48;;;;;;;4.53;2.53;;;;;;;5.28;48.52;101459.56;5115757;28;20055;-57
2022/04/02 02:57:16;;;;;;;3.20;1.90;;;;;;;5.23;48.65;101457.41;5107474;28;20082;-58
2022/04/02 02:59:44;;;;;;;4.70;2.00;;;;;;;5.27;47.88;101459.72;5114550;28;20052;-58
2022/04/02 03:02:12;;;;;;;4.72;2.13;;;;;;;5.23;48.34;101457.41;5117452;28;20168;-57
2022/04/02 03:04:41;;;;;;;3.85;1.75;;;;;;;5.26;48.42;101464.22;5123787;28;20500;-58
2022/04/02 03:07:09;;;;;;;3.55;1.85;;;;;;;5.21;48.39;101459.41;5113695;27;20062;-58
2022/04/02 03:09:37;;;;;;;6.57;2.10;;;;;;;5.15;48.57;101456.63;5117963;28;20056;-58
2022/04/02 03:12:06;;;;;;;4.63;2.10;;;;;;;5.16;48.53;101451.13;5110144;28;20074;-57
2022/04/02 03:14:34;;;;;;;2.55;1.65;;;;;;;5.13;48.46;101461.31;5124980;27;20091;-58
2022/04/02 03:17:02;;;;;;;3.08;2.17;;;;;;;5.19;48.41;101460.63;5118384;28;20050;-58
2022/04/02 03:19:30;;;;;;;4.90;2.22;;;;;;;5.15;48.49;101460.13;5123050;28;20079;-58
2022/04/02 03:21:59;;;;;;;5.82;2.30;;;;;;;5.21;47.96;101472.75;5120303;28;20047;-58
2022/04/02 03:24:27;;;;;;;3.67;1.60;;;;;;;5.20;47.98;101465.75;5115611;28;20056;-57
2022/04/02 03:26:55;;;;;;;3.40;1.70;;;;;;;5.13;48.82;101464.81;5130197;27;20120;-57
2022/04/02 03:29:22;;;;;;;4.32;1.60;;;;;;;5.20;47.69;101470.28;5121754;28;20074;-58
2022/04/02 03:31:50;;;;;;;3.63;2.03;;;;;;;5.23;47.87;101461.91;5117438;28;20074;-58
2022/04/02 03:34:18;;;;;;;7.78;2.58;;;;;;;5.22;48.21;101466.41;5120075;28;20051;-59
2022/04/02 03:36:46;;;;;;;3.33;2.10;;;;;;;5.19;48.54;101469.44;5123208;27;20063;-58
2022/04/02 03:39:15;;;;;;;3.47;2.08;;;;;;;5.20;47.75;101470.28;5125685;27;20065;-58
2022/04/02 03:41:42;;;;;;;7.20;1.90;;;;;;;5.24;48.31;101467.06;5116127;28;20063;-58
2022/04/02 03:44:10;;;;;;;3.97;2.22;;;;;;;5.19;47.97;101461.44;5111937;28;20128;-59
2022/04/02 03:49:25;;;;;;;2.95;2.10;;;;;;;5.23;48.11;101462.75;5112800;28;20052;-59
2022/04/02 03:51:53;;;;;;;4.93;1.92;;;;;;;5.29;48.08;101468.38;5120029;28;20078;-59
2022/04/02 03:54:22;;;;;;;4.00;2.05;;;;;;;5.30;47.91;101468.22;5116722;28;20047;-59
2022/04/02 03:56:50;;;;;;;4.65;1.90;;;;;;;5.32;47.23;101460.03;5118839;28;20044;-59
2022/04/02 03:59:18;;;;;;;3.53;1.85;;;;;;;5.27;47.72;101471.22;5124137;27;20130;-58
2022/04/02 04:01:46;;;;;;;3.20;2.30;;;;;;;5.21;47.99;101471.91;5107524;28;20515;-58
2022/04/02 04:04:14;;;;;;;4.18;2.08;;;;;;;5.21;47.81;101478.06;5110590;28;20555;-58
2022/04/02 04:06:41;;;;;;;4.85;2.17;;;;;;;5.20;48.06;101465.75;5112823;28;20085;-58
2022/04/02 04:09:09;;;;;;;3.83;2.13;;;;;;;5.15;47.24;101468.13;5108181;28;20043;-58
2022/04/02 04:11:38;;;;;;;4.80;1.88;;;;;;;5.18;47.28;101473.13;5106046;28;20086;-58
2022/04/02 04:14:06;;;;;;;3.92;2.28;;;;;;;5.17;48.04;101482.09;5115217;28;20094;-58
2022/04/02 04:16:35;;;;;;;4.30;2.25;;;;;;;5.10;47.50;101475.78;5114400;28;20122;-59
2022/04/02 04:19:03;;;;;;;5.20;2.20;;;;;;;5.05;48.08;101478.13;5116762;28;20040;-58
2022/04/02 04:21:31;;;;;;;4.45;2.40;;;;;;;5.04;47.63;101487.13;5117094;28;20048;-57
2022/04/02 04:23:58;;;;;;;8.02;2.10;;;;;;;4.99;47.83;101485.97;5116462;28;20535;-57
2022/04/02 04:26:27;;;;;;;3.08;1.77;;;;;;;4.98;47.76;101489.66;5117458;28;20063;-59
2022/04/02 04:28:56;;;;;;;6.53;2.47;;;;;;;4.97;48.56;101491.47;5106387;28;20072;-58
2022/04/02 04:31:24;;;;;;;5.18;2.50;;;;;;;5.00;47.77;101487.63;5117586;28;21471;-57
2022/04/02 04:33:52;;;;;;;4.15;2.20;;;;;;;4.98;48.43;101493.13;5112756;28;20048;-58
2022/04/02 04:36:21;;;;;;;5.55;2.63;;;;;;;4.96;48.38;101499.63;5114067;28;20116;-58
2022/04/02 04:38:50;;;;;;;2.90;1.90;;;;;;;4.92;48.45;101503.63;5114864;28;20078;-57
2022/04/02 04:41:18;;;;;;;5.55;2.50;;;;;;;4.89;48.11;101494.97;5110411;28;20130;-57
2022/04/02 04:43:48;;;;;;;7.38;2.80;;;;;;;4.91;48.33;101500.16;5108969;28;20048;-58
2022/04/02 04:46:18;;;;;;;4.45;2.00;;;;;;;4.89;48.20;101504.81;5109996;28;20059;-58
2022/04/02 04:48:47;;;;;;;4.15;2.10;;;;;;;4.88;48.18;101514.63;5121037;28;20119;-58
2022/04/02 04:51:16;;;;;;;4.60;2.15;;;;;;;4.88;48.43;101519.94;5122184;28;20055;-58
2022/04/02 04:53:44;;;;;;;3.10;2.10;;;;;;;4.90;47.81;101519.78;5121255;27;20108;-58
2022/04/02 04:56:12;;;;;;;3.25;2.03;;;;;;;4.94;47.54;101518.44;5118218;28;20068;-58
2022/04/02 04:58:39;;;;;;;5.88;2.40;;;;;;;4.96;48.51;101527.09;5112348;28;20062;-58
2022/04/02 05:01:08;;;;;;;4.30;2.35;;;;;;;4.94;47.83;101526.44;5108374;28;20055;-58
2022/04/02 05:03:37;;;;;;;3.58;1.80;;;;;;;4.99;47.53;101528.59;5118222;28;20056;-58
2022/04/02 05:06:06;;;;;;;5.32;2.20;;;;;;;5.04;47.65;101528.94;5117239;27;20067;-58
2022/04/02 05:08:34;;;;;;;5.38;2.33;;;;;;;5.03;47.47;101541.41;5116902;28;20477;-58
2022/04/02 05:11:02;;;;;;;3.85;2.42;;;;;;;5.02;47.65;101538.91;5122382;28;20524;-58
2022/04/02 05:13:30;;;;;;;3.92;2.20;;;;;;;5.08;47.64;101539.06;5112876;28;20092;-58
2022/04/02 05:15:58;;;;;;;3.75;2.20;;;;;;;5.10;47.91;101544.22;5115633;28;20040;-58
2022/04/02 05:18:26;;;;;;;4.15;2.08;;;;;;;5.28;46.84;101544.00;5117301;28;20731;-58
2022/04/02 05:20:56;;;;;;;4.65;2.28;;;;;;;5.31;47.39;101551.66;5113648;28;20054;-58
2022/04/02 05:23:24;;;;;;;6.72;2.65;;;;;;;5.48;46.45;101553.28;5118052;28;20180;-58
2022/04/02 05:25:52;;;;;;;4.22;2.28;;;;;;;5.57;46.06;101553.09;5123723;28;20555;-57
2022/04/02 05:28:19;;;;;;;4.70;2.92;;;;;;;5.66;45.81;101555.72;5116946;28;20080;-58
2022/04/02 05:30:47;;;;;;;8.73;2.15;;;;;;;5.87;45.40;101561.31;5125059;28;20082;-58
2022/04/02 05:33:15;;;;;;;5.93;2.80;;;;;;;6.09;45.37;101568.56;5119160;28;20048;-59
2022/04/02 05:36:05;;;;;;;3.15;2.40;;;;;;;6.24;44.93;101568.66;5111421;28;20056;-58
2022/04/02 05:38:33;;;;;;;6.43;2.33;;;;;;;6.39;44.26;101576.75;5121072;28;20079;-56
2022/04/02 05:41:01;;;;;;;4.00;1.95;;;;;;;6.32;44.28;101573.94;5110456;28;20078;-56
2022/04/02 05:43:29;;;;;;;4.18;2.28;;;;;;;6.26;44.39;101577.31;5114918;28;20044;-57
2022/04/02 05:45:57;;;;;;;6.95;2.78;;;;;;;6.18;44.65;101574.69;5116673;28;20051;-58
2022/04/02 05:48:25;;;;;;;5.35;2.42;;;;;;;6.09;44.79;101587.25;5125277;28;20047;-58
2022/04/02 05:50:53;;;;;;;5.60;2.47;;;;;;;5.94;44.79;101594.31;5125079;28;20078;-57
2022/04/02 05:53:23;;;;;;;6.85;2.58;;;;;;;5.88;44.95;101592.31;5114890;28;20090;-57
2022/04/02 05:55:51;;;;;;;7.93;2.40;;;;;;;5.77;45.21;101593.50;5114098;28;20124;-59
2022/04/02 05:58:18;;;;;;;4.65;2.20;;;;;;;5.73;45.93;101599.38;5125591;28;20047;-57
2022/04/02 06:00:46;;;;;;;3.97;2.15;;;;;;;5.69;45.53;101604.22;5117119;28;20083;-59
2022/04/02 06:03:16;;;;;;;5.35;2.40;;;;;;;5.61;45.83;101604.22;5125323;28;20079;-58
2022/04/02 06:05:44;;;;;;;4.57;1.88;;;;;;;5.51;46.51;101604.41;5114413;28;20082;-58
2022/04/02 06:08:12;;;;;;;3.38;2.10;;;;;;;5.44;46.73;101599.94;5119767;28;20047;-58
2022/04/02 06:10:41;;;;;;;5.20;2.40;;;;;;;5.39;46.79;101603.13;5113042;28;20246;-55
2022/04/02 06:13:09;;;;;;;5.13;2.60;;;;;;;5.43;46.31;101609.78;5117673;28;20059;-57
2022/04/02 06:15:37;;;;;;;3.70;2.10;;;;;;;5.36;46.79;101610.63;5116160;28;20044;-58
2022/04/02 06:18:06;;;;;;;6.05;2.50;;;;;;;5.30;46.86;101611.28;5114792;28;20043;-58
2022/04/02 06:20:34;;;;;;;4.57;2.20;;;;;;;5.32;46.73;101614.63;5125507;28;20075;-57
2022/04/02 06:23:02;;;;;;;4.85;2.08;;;;;;;5.22;46.73;101620.97;5120734;28;20047;-57
2022/04/02 06:25:30;;;;;;;3.55;2.10;;;;;;;5.15;47.25;101619.16;5122900;28;20058;-57
2022/04/02 06:27:59;;;;;;;5.05;2.50;;;;;;;5.10;46.88;101624.16;5125709;28;20066;-59
2022/04/02 06:30:27;;;;;;;4.13;2.22;;;;;;;5.05;46.81;101629.16;5125426;28;20072;-58
2022/04/02 06:33:02;;;;;;;4.30;2.27;;;;;;;5.02;46.93;101643.63;5024679;28;10000604;-58
2022/04/02 06:35:30;;;;;;;4.95;2.38;;;;;;;4.97;47.51;101629.16;5101342;28;20272;-58
2022/04/02 06:37:58;;;;;;;3.88;2.03;;;;;;;5.00;46.67;101642.13;5118049;28;20067;-58
2022/04/02 06:40:26;;;;;;;4.25;2.38;;;;;;;5.01;47.48;101643.81;5119812;28;20512;-58
2022/04/02 06:42:56;;;;;;;4.68;2.03;;;;;;;5.02;47.74;101645.47;5109961;28;20080;-58
2022/04/02 06:45:26;;;;;;;3.90;2.20;;;;;;;4.99;47.79;101643.97;5114587;28;20059;-57
2022/04/02 06:47:54;;;;;;;4.38;2.70;;;;;;;5.02;47.22;101656.13;5112737;28;20055;-57
2022/04/02 06:50:22;;;;;;;3.85;2.00;;;;;;;5.03;47.10;101661.28;5118181;28;20466;-57
2022/04/02 06:52:50;;;;;;;4.70;2.53;;;;;;;5.00;47.69;101660.78;5119826;28;20131;-57
2022/04/02 06:55:18;;;;;;;3.85;2.22;;;;;;;5.02;47.33;101667.63;5113932;28;20079;-57
2022/04/02 06:57:51;;;;;;;3.45;1.90;;;;;;;5.04;47.56;101667.44;5111356;28;20078;-57
2022/04/02 07:00:20;;;;;;;4.03;2.40;;;;;;;5.01;47.34;101673.09;5106636;28;20047;-58
2022/04/02 07:02:49;;;;;;;3.63;1.80;;;;;;;4.95;47.30;101677.25;5111794;28;20107;-62
2022/04/02 07:05:18;;;;;;;3.50;2.30;;;;;;;5.01;47.60;101681.09;5114764;28;20058;-58
2022/04/02 07:07:46;;;;;;;4.22;2.10;;;;;;;5.04;46.96;101683.44;5121497;27;20105;-57
2022/04/02 07:10:14;;;;;;;4.10;1.90;;;;;;;5.08;47.29;101684.78;5111204;28;20130;-59
2022/04/02 07:12:42;;;;;;;7.43;2.40;;;;;;;5.04;47.07;101691.44;5120587;28;20047;-58
2022/04/02 07:15:10;;;;;;;6.65;1.73;;;;;;;5.06;46.76;101695.59;5121840;28;20082;-58
2022/04/02 07:17:38;;;;;;;5.43;2.28;;;;;;;5.14;47.80;101694.78;5109559;28;20075;-57
2022/04/02 07:20:10;;;;;;;4.70;1.80;;;;;;;5.21;47.17;101693.91;5108768;27;20087;-57
2022/04/02 07:22:39;;;;;;;2.70;1.90;;;;;;;5.23;46.78;101697.25;5106943;28;20126;-56
2022/04/02 07:25:09;;;;;;;5.03;2.72;;;;;;;5.18;47.41;101710.25;5104172;28;20402;-57
2022/04/02 07:27:38;;;;;;;3.20;2.13;;;;;;;5.18;47.00;101715.59;5107439;28;20043;-57
2022/04/02 07:30:08;;;;;;;3.28;2.00;;;;;;;5.14;47.54;101711.59;5116491;28;20115;-57
2022/04/02 07:32:36;;;;;;;2.35;1.80;;;;;;;5.07;47.17;101710.56;5110228;28;20048;-56
2022/04/02 07:35:04;;;;;;;4.38;1.98;;;;;;;4.99;47.71;101715.06;5112580;28;20059;-56
2022/04/02 07:37:41;;;;;;;4.18;2.40;;;;;;;5.06;47.81;101718.72;5110319;28;20071;-57
2022/04/02 07:40:15;;;;;;;5.13;1.83;;;;;;;5.04;47.08;101721.56;5121851;28;20048;-57
2022/04/02 07:42:55;;;;;;;2.38;1.50;;;;;;;5.07;47.77;101726.56;5110785;28;20050;-56
2022/04/02 07:45:30;;;;;;;4.07;1.55;;;;;;;5.07;47.42;101733.72;5119236;28;20418;-56
2022/04/02 07:47:59;;;;;;;2.88;1.80;;;;;;;5.05;47.23;101733.88;5123302;28;20062;-56
2022/04/02 07:50:28;;;;;;;5.32;1.80;;;;;;;5.04;47.01;101739.38;5124304;28;20048;-56
2022/04/02 07:52:57;;;;;;;3.42;1.90;;;;;;;5.03;47.48;101735.03;5117826;28;20165;-56
2022/04/02 07:55:26;;;;;;;5.13;2.25;;;;;;;5.02;47.18;101747.53;5124226;28;20089;-57
2022/04/02 07:57:54;;;;;;;3.65;2.00;;;;;;;5.01;47.81;101751.19;5123223;28;20114;-57
2022/04/02 08:00:26;;;;;;;2.97;1.80;;;;;;;5.00;47.17;101746.88;5122998;28;20089;-56
2022/04/02 08:02:54;;;;;;;4.32;2.08;;;;;;;5.03;47.60;101746.53;5122127;28;20055;-57
2022/04/02 08:05:22;;;;;;;3.50;1.92;;;;;;;5.02;47.53;101750.19;5112902;28;20044;-57
2022/04/02 08:07:54;;;;;;;3.20;1.77;;;;;;;5.06;47.34;101748.88;5121814;28;20059;-57
2022/04/02 08:10:25;;;;;;;5.13;2.17;;;;;;;5.03;47.48;101735.03;5124107;28;20051;-57
2022/04/02 08:12:54;;;;;;;3.25;1.83;;;;;;;5.10;47.35;101752.03;5115484;28;20052;-57
2022/04/02 08:15:23;;;;;;;4.60;1.77;;;;;;;5.09;47.93;101742.38;5124266;28;20055;-56
2022/04/02 08:17:55;;;;;;;4.80;2.30;;;;;;;5.10;47.66;101750.22;5107726;28;20123;-56
2022/04/02 08:20:23;;;;;;;7.18;2.05;;;;;;;5.06;47.35;101748.03;5114608;28;20078;-56
2022/04/02 08:22:52;;;;;;;4.70;2.35;;;;;;;5.11;48.18;101759.88;5115144;28;20059;-57
2022/04/02 08:25:20;;;;;;;5.70;1.90;;;;;;;5.12;47.80;101753.56;5116853;28;20074;-57
2022/04/02 08:28:00;;;;;;;3.70;2.10;;;;;;;5.16;48.35;101762.06;5114763;28;20101;-57
2022/04/02 08:30:32;;;;;;;4.38;2.28;;;;;;;5.04;48.05;101750.88;5115262;28;20827;-57
2022/04/02 08:33:16;;;;;;;4.18;1.98;;;;;;;5.03;48.59;101762.53;5122826;28;20075;-57
2022/04/02 08:35:50;;;;;;;4.03;2.40;;;;;;;5.00;48.83;101770.84;5113933;28;20059;-57
2022/04/02 08:38:28;;;;;;;4.88;1.95;;;;;;;4.98;49.30;101766.66;5112057;28;20080;-57
2022/04/02 08:41:32;;;;;;;3.47;2.22;;;;;;;4.96;48.88;101774.81;5109577;28;20138;-56
2022/04/02 08:44:46;;;;;;;5.20;2.33;;;;;;;4.96;49.25;101777.50;5108073;28;20103;-57
2022/04/02 08:47:44;;;;;;;5.88;2.50;;;;;;;5.01;48.53;101777.84;5104352;28;20120;-55
2022/04/02 08:50:13;;;;;;;;;;;;;;;5.07;49.08;101789.66;5105362;28;20142;-56
2022/04/02 08:52:51;;;;;;;4.45;2.50;;;;;;;5.05;49.28;101781.84;5107443;28;19963;-56
2022/04/02 08:55:20;;;;;;;3.67;2.17;;;;;;;5.05;48.80;101803.16;5109265;28;20080;-56
2022/04/02 08:58:11;;;;;;;4.40;2.50;;;;;;;5.08;48.99;101796.66;5111111;28;20167;-56
2022/04/02 09:00:42;;;;;;;4.28;2.38;;;;;;;5.11;48.76;101802.50;5112647;28;20131;-56
2022/04/02 09:03:40;;;;;;;6.30;2.22;;;;;;;5.19;49.09;101799.03;5108278;28;20102;-56
2022/04/02 09:06:41;;;;;;;3.53;2.38;;;;;;;5.28;48.71;101813.16;5111783;28;20108;-58
2022/04/02 09:09:22;;;;;;;5.05;2.35;;;;;;;5.30;49.39;101813.84;5109738;28;20111;-58
2022/04/02 09:12:20;;;;;;;3.90;2.10;;;;;;;5.33;49.08;101814.34;5110668;28;20090;-57
2022/04/02 09:15:08;;;;;;;5.78;2.25;;;;;;;5.28;48.83;101823.84;5105307;28;20055;-57
2022/04/02 09:17:37;;;;;;;4.45;2.22;;;;;;;5.28;49.03;101815.84;5111326;28;20085;-57
2022/04/02 09:20:39;;;;;;;5.47;2.47;;;;;;;5.31;49.30;101820.84;5117946;28;20093;-57
2022/04/02 09:23:10;;;;;;;4.32;2.25;;;;;;;5.37;48.97;101830.84;5096085;28;20119;-56
2022/04/02 09:26:11;;;;;;;3.67;2.20;;;;;;;5.33;49.18;101829.50;5104839;28;20044;-55
2022/04/02 09:28:46;;;;;;;5.45;2.42;;;;;;;5.28;49.42;101832.66;5118492;28;20051;-56
2022/04/02 09:31:55;;;;;;;4.00;2.17;;;;;;;5.27;49.65;101838.16;5109455;28;20106;-59
2022/04/02 09:34:59;;;;;;;3.92;2.53;;;;;;;5.29;49.52;101839.66;5106578;28;20056;-56
2022/04/02 09:37:57;;;;;;;4.72;2.40;;;;;;;5.33;49.54;101835.66;5106133;28;20064;-57
2022/04/02 09:40:29;;;;;;;;;;;;;;;5.33;49.66;101824.19;5109527;28;20051;-56
2022/04/02 09:43:01;;;;;;;3.67;2.28;;;;;;;5.30;49.26;101828.00;5108145;28;19966;-60
2022/04/02 09:45:43;;;;;;;6.63;2.63;;;;;;;5.29;49.59;101833.50;5106110;28;20138;-56
2022/04/02 09:48:18;;;;;;;5.32;3.25;;;;;;;5.28;49.34;101831.81;5120163;28;20066;-57
2022/04/02 09:50:49;;;;;;;5.55;2.85;;;;;;;5.34;49.77;101829.34;5112935;28;20127;-56
2022/04/02 09:53:26;;;;;;;6.50;3.25;;;;;;;5.31;49.27;101827.00;5104666;28;20051;-56
2022/04/02 09:56:14;;;;;;;7.32;2.45;;;;;;;5.28;49.26;101840.66;5110193;28;20167;-57
2022/04/02 09:59:04;;;;;;;5.07;2.83;;;;;;;5.28;49.29;101840.66;5117863;28;20150;-57
2022/04/02 10:01:37;;;;;;;5.78;2.75;;;;;;;5.33;49.04;101843.66;5114792;28;20129;-55
2022/04/02 10:04:19;;;;;;;5.38;2.55;;;;;;;5.42;48.90;101833.84;5120346;28;20051;-57
2022/04/02 10:06:49;;;;;;;6.13;3.13;;;;;;;5.50;48.90;101834.72;5114488;28;20055;-56
2022/04/02 10:09:20;;;;;;;4.95;2.58;;;;;;;5.53;49.37;101842.38;5107040;28;20071;-55
2022/04/02 10:11:52;;;;;;;4.70;2.60;;;;;;;5.59;48.93;101840.06;5119853;28;20075;-58
2022/04/02 10:14:22;;;;;;;4.57;2.72;;;;;;;5.59;48.86;101840.88;5110663;28;20088;-56
2022/04/02 10:16:53;;;;;;;6.60;2.95;;;;;;;5.62;49.02;101826.38;5110958;28;20039;-57
2022/04/02 10:19:27;;;;;;;4.97;3.00;;;;;;;5.68;48.54;101821.22;5110600;28;20388;-57
2022/04/02 10:21:58;;;;;;;7.80;2.63;;;;;;;5.74;48.67;101823.22;5122492;28;20094;-57
2022/04/02 10:24:28;;;;;;;4.97;2.47;;;;;;;5.83;48.74;101832.91;5125670;28;20175;-57
2022/04/02 10:26:58;;;;;;;5.55;3.05;;;;;;;5.90;48.91;101832.25;5111218;28;20126;-58
2022/04/02 10:29:51;;;;;;;5.25;2.40;;;;;;;5.92;48.57;101814.25;5104926;28;20051;-57
2022/04/02 10:32:39;;;;;;;5.35;2.72;;;;;;;5.83;48.84;101813.41;5106910;28;20048;-56
2022/04/02 10:35:09;;;;;;;5.80;2.63;;;;;;;5.81;48.96;101810.91;5104645;28;20066;-56
2022/04/02 10:37:44;;;;;;;4.70;2.55;;;;;;;5.84;49.10;101823.91;5112435;28;20056;-57
2022/04/02 10:40:16;;;;;;;4.57;2.63;;;;;;;5.90;49.02;101805.59;5105793;28;20391;-58
2022/04/02 10:42:51;;;;;;;5.50;3.50;;;;;;;5.97;48.59;101807.41;5107441;28;20116;-57
2022/04/02 10:45:21;;;;;;;3.58;2.30;;;;;;;5.98;48.71;101808.25;5117971;28;20040;-58
2022/04/02 10:47:50;;;;;;;4.40;2.45;;;;;;;5.91;48.84;101807.25;5118976;28;20074;-57
2022/04/02 10:50:19;;;;;;;6.80;2.80;;;;;;;5.90;48.17;101806.41;5107158;28;20102;-58
2022/04/02 10:52:51;;;;;;;5.43;3.00;;;;;;;5.91;48.16;101815.25;5115615;28;20386;-56
2022/04/02 10:55:23;;;;;;;6.57;2.72;;;;;;;5.84;48.58;101818.56;5113935;28;20638;-58
2022/04/02 10:57:50;;;;;;;5.75;2.65;;;;;;;5.81;48.32;101816.22;5115023;28;20071;-57
2022/04/02 11:00:18;;;;;;;5.85;2.47;;;;;;;5.82;48.45;101812.56;5123493;28;20083;-58
2022/04/02 11:02:49;;;;;;;6.22;2.70;;;;;;;5.87;48.08;101807.56;5117180;28;20401;-56
2022/04/02 11:05:19;;;;;;;5.05;2.90;;;;;;;5.94;47.90;101813.09;5106172;28;20051;-56
2022/04/02 11:07:49;;;;;;;5.82;3.00;;;;;;;5.95;48.24;101804.09;5116874;27;20051;-56
2022/04/02 11:10:18;;;;;;;3.83;2.17;;;;;;;6.00;48.10;101807.09;5112859;28;20044;-56
2022/04/02 11:12:49;;;;;;;5.90;2.70;;;;;;;6.02;48.01;101810.41;5122302;28;20114;-57
2022/04/02 11:15:20;;;;;;;5.45;2.65;;;;;;;5.99;47.71;101815.25;5105554;28;20048;-57
2022/04/02 11:17:49;;;;;;;5.63;2.70;;;;;;;5.91;47.44;101808.09;5116280;28;20052;-57
2022/04/02 11:20:19;;;;;;;4.80;2.80;;;;;;;5.91;47.50;101810.75;5115787;28;20075;-57
2022/04/02 11:23:13;;;;;;;6.30;3.53;;;;;;;5.91;47.65;101804.59;5124059;28;20097;-57
2022/04/02 11:25:46;;;;;;;5.13;2.60;;;;;;;5.94;48.05;101814.91;5118125;28;20072;-57
2022/04/02 11:28:17;;;;;;;5.65;2.45;;;;;;;5.91;47.83;101805.41;5119664;28;20071;-57
2022/04/02 11:30:47;;;;;;;4.78;2.72;;;;;;;5.93;48.30;101807.91;5113388;28;20087;-57
2022/04/02 11:33:16;;;;;;;4.30;2.50;;;;;;;5.92;47.67;101811.59;5108376;28;20058;-57
2022/04/02 11:35:47;;;;;;;3.78;2.30;;;;;;;5.93;47.62;101810.59;5123952;28;20051;-57
2022/04/02 11:38:34;;;;;;;4.35;2.35;;;;;;;5.95;47.68;101811.25;5113458;28;20043;-57
2022/04/02 11:41:09;;;;;;;5.78;2.50;;;;;;;6.01;47.56;101818.59;5112728;28;20067;-57
2022/04/02 11:43:40;;;;;;;6.13;3.33;;;;;;;6.02;47.34;101822.91;5119606;28;20120;-57
2022/04/02 11:46:09;;;;;;;10.73;2.97;;;;;;;6.03;47.54;101811.25;5120196;28;20206;-57
2022/04/02 11:48:49;;;;;;;6.95;2.60;;;;;;;6.04;47.47;101818.25;5116111;28;20051;-57
2022/04/02 11:51:19;;;;;;;5.50;2.38;;;;;;;6.05;47.41;101819.91;5109458;28;20036;-58
2022/04/02 11:53:47;;;;;;;4.88;2.67;;;;;;;6.02;47.67;101820.25;5120090;28;20051;-57
2022/04/02 11:56:26;;;;;;;6.95;2.38;;;;;;;6.00;47.39;101816.91;5116860;28;20153;-57
2022/04/02 11:58:57;;;;;;;6.78;3.80;;;;;;;6.00;47.66;101827.59;5109817;28;20063;-57
2022/04/02 12:01:26;;;;;;;4.95;2.67;;;;;;;5.95;47.21;101821.94;5120595;28;20082;-57